Time;durP1;ratioP1;P1;durP2;ratioP2;P2;SDS_P1;SDS_P2;PMS_P1;PMS_P2;Temp;Humidity;BMP_temperature;BMP_pressure;BME280_temperature;BME280_humidity;BME280_pressure;Samples;Min_cycle;Max_cycle;Signal;HPM_P1;HPM_P2
2020/12/26 00:00:23;;;;;;;0.65;0.60;;;20.60;13.80;;;;;;5005470;28;19961;-66
2020/12/26 00:02:49;;;;;;;0.65;0.60;;;20.30;13.60;;;;;;4979157;28;20023;-65
2020/12/26 00:05:16;;;;;;;2.10;1.00;;;20.30;13.60;;;;;;4994826;28;20032;-65
2020/12/26 00:07:42;;;;;;;;;;;20.30;14.20;;;;;;4997151;28;20081;-66
2020/12/26 00:10:08;;;;;;;3.10;1.60;;;20.20;14.90;;;;;;4990627;28;19925;-66
2020/12/26 00:12:35;;;;;;;8.95;1.40;;;20.10;14.30;;;;;;5004114;28;20140;-65
2020/12/26 00:15:01;;;;;;;;;;;20.00;14.80;;;;;;5006209;28;20044;-65
2020/12/26 00:17:28;;;;;;;8.45;2.30;;;20.00;15.00;;;;;;4994608;28;19991;-65
2020/12/26 00:19:54;;;;;;;5.63;1.63;;;19.90;15.30;;;;;;5003365;28;20028;-66
2020/12/26 00:22:21;;;;;;;5.95;1.48;;;19.70;15.60;;;;;;4988746;28;20495;-66
2020/12/26 00:24:47;;;;;;;4.20;1.25;;;19.60;15.80;;;;;;4991472;28;20495;-65
2020/12/26 00:27:13;;;;;;;;;;;19.60;15.80;;;;;;5021692;28;20434;-65
2020/12/26 00:29:40;;;;;;;5.00;1.70;;;19.50;16.10;;;;;;4992639;28;20363;-65
2020/12/26 00:32:06;;;;;;;;;;;19.40;16.40;;;;;;4994318;28;20042;-64
2020/12/26 00:34:32;;;;;;;2.40;1.30;;;19.20;16.40;;;;;;5008587;28;20304;-64
2020/12/26 00:36:59;;;;;;;2.97;1.23;;;19.10;16.90;;;;;;5008519;28;20075;-65
2020/12/26 00:39:25;;;;;;;;;;;18.90;17.30;;;;;;4987484;28;20033;-65
2020/12/26 00:41:51;;;;;;;4.95;1.80;;;18.90;17.60;;;;;;4994238;28;19911;-64
2020/12/26 00:44:17;;;;;;;;;;;18.80;17.80;;;;;;4997429;28;20047;-65
2020/12/26 00:46:44;;;;;;;12.18;3.60;;;18.60;18.60;;;;;;4977383;28;19953;-65
2020/12/26 00:49:12;;;;;;;6.55;4.78;;;18.50;18.60;;;;;;4983829;28;20027;-65
2020/12/26 00:51:39;;;;;;;10.70;6.35;;;18.30;18.70;;;;;;4964134;28;20036;-67
2020/12/26 00:54:06;;;;;;;13.93;6.90;;;18.20;18.90;;;;;;4990223;28;20039;-65
2020/12/26 00:56:37;;;;;;;21.27;7.40;;;18.10;19.30;;;;;;4991952;28;20021;-65
2020/12/26 00:59:03;;;;;;;16.15;8.13;;;17.90;19.30;;;;;;4976528;28;20444;-67
2020/12/26 01:01:29;;;;;;;;;;;17.80;19.60;;;;;;4984484;28;20024;-65
2020/12/26 01:03:56;;;;;;;17.98;7.90;;;17.60;20.00;;;;;;4975443;28;20439;-67
2020/12/26 01:06:22;;;;;;;20.92;8.07;;;17.90;34.70;;;;;;4970671;28;20039;-65
2020/12/26 01:08:48;;;;;;;;;;;17.30;21.20;;;;;;4990611;28;20031;-65
2020/12/26 01:11:15;;;;;;;15.98;7.88;;;17.30;21.80;;;;;;4983395;28;20399;-65
2020/12/26 01:13:41;;;;;;;;;;;17.20;22.20;;;;;;4985127;28;20039;-66
2020/12/26 01:16:11;;;;;;;13.60;7.38;;;17.00;22.80;;;;;;4990400;28;19914;-66
2020/12/26 01:18:38;;;;;;;15.90;7.65;;;16.90;22.90;;;;;;4986463;28;20017;-65
2020/12/26 01:21:05;;;;;;;16.63;7.55;;;16.80;22.70;;;;;;4987313;28;20034;-64
2020/12/26 01:23:32;;;;;;;;;;;16.80;22.90;;;;;;4974685;28;20027;-64
2020/12/26 01:25:58;;;;;;;21.52;6.93;;;16.60;23.00;;;;;;4967319;28;19918;-64
2020/12/26 01:28:25;;;;;;;13.60;7.30;;;16.50;23.00;;;;;;4980575;28;20023;-68
2020/12/26 01:30:52;;;;;;;14.40;6.38;;;16.40;23.00;;;;;;4977944;28;20035;-65
2020/12/26 01:33:18;;;;;;;;;;;16.30;23.20;;;;;;4990110;28;20019;-66
2020/12/26 01:35:44;;;;;;;14.68;6.18;;;16.10;23.70;;;;;;4988041;28;19964;-65
2020/12/26 01:38:11;;;;;;;22.02;6.57;;;16.00;24.10;;;;;;4998174;28;20032;-65
2020/12/26 01:40:38;;;;;;;14.32;6.25;;;16.00;24.60;;;;;;4981214;28;20022;-65
2020/12/26 01:43:05;;;;;;;21.05;6.88;;;16.00;24.80;;;;;;4967160;28;20119;-65
2020/12/26 01:45:31;;;;;;;23.25;6.90;;;15.90;25.00;;;;;;4971539;28;20043;-66
2020/12/26 01:47:58;;;;;;;23.58;7.90;;;15.80;25.00;;;;;;4985352;28;20408;-65
2020/12/26 01:50:24;;;;;;;24.13;8.35;;;15.70;25.00;;;;;;4970152;28;20480;-65
2020/12/26 01:52:53;;;;;;;;;;;15.70;25.80;;;;;;4968631;28;20218;-65
2020/12/26 01:55:20;;;;;;;24.73;9.18;;;15.60;26.20;;;;;;4972170;28;20001;-66
2020/12/26 01:57:52;;;;;;;34.58;9.00;;;15.40;26.30;;;;;;4963098;28;20084;-66
2020/12/26 02:00:20;;;;;;;20.60;7.90;;;15.40;26.70;;;;;;5001227;28;20025;-67
2020/12/26 02:02:49;;;;;;;25.35;8.55;;;15.30;26.80;;;;;;4971246;28;20027;-66
2020/12/26 02:05:18;;;;;;;24.67;8.20;;;15.20;27.00;;;;;;4991290;28;20064;-63
2020/12/26 02:07:46;;;;;;;23.88;7.88;;;15.00;46.80;;;;;;4989520;28;20432;-65
2020/12/26 02:10:14;;;;;;;21.15;7.82;;;15.10;26.90;;;;;;4969264;28;20027;-66
2020/12/26 02:12:41;;;;;;;19.80;8.27;;;15.00;26.80;;;;;;4980545;28;20483;-64
2020/12/26 02:15:07;;;;;;;15.43;7.78;;;14.90;27.30;;;;;;4980695;28;20042;-65
2020/12/26 02:17:34;;;;;;;27.38;8.45;;;14.90;27.60;;;;;;4972460;28;20030;-66
2020/12/26 02:20:00;;;;;;;;;;;;;;;;;;4969913;28;20050;-65
2020/12/26 02:22:27;;;;;;;18.08;8.07;;;14.80;55.00;;;;;;4980370;28;19929;-66
2020/12/26 02:24:53;;;;;;;26.75;8.65;;;14.70;28.20;;;;;;4980631;28;20367;-67
2020/12/26 02:27:20;;;;;;;22.17;8.88;;;14.60;28.30;;;;;;4990700;28;20396;-66
2020/12/26 02:29:46;;;;;;;18.75;8.35;;;14.60;28.30;;;;;;4975650;28;20037;-66
2020/12/26 02:32:16;;;;;;;20.42;7.90;;;14.70;48.30;;;;;;4986066;28;20500;-65
2020/12/26 02:34:43;;;;;;;14.95;7.93;;;14.50;28.50;;;;;;4984999;28;20033;-65
2020/12/26 02:37:10;;;;;;;23.63;7.78;;;14.50;29.00;;;;;;4988736;28;20031;-65
2020/12/26 02:39:36;;;;;;;24.33;8.38;;;14.50;29.40;;;;;;4987551;28;20028;-65
2020/12/26 02:42:02;;;;;;;;;;;14.40;29.30;;;;;;4998003;28;20029;-66
2020/12/26 02:44:31;;;;;;;23.02;8.85;;;14.60;39.90;;;;;;4989396;28;20428;-65
2020/12/26 02:46:58;;;;;;;20.10;8.45;;;14.20;29.80;;;;;;4994415;28;20370;-67
2020/12/26 02:49:24;;;;;;;19.50;9.07;;;14.20;29.70;;;;;;5003885;28;20017;-65
2020/12/26 02:51:51;;;;;;;;;;;14.20;30.00;;;;;;5012532;28;20469;-67
2020/12/26 02:54:17;;;;;;;30.40;10.32;;;14.10;30.20;;;;;;4990864;28;20387;-66
2020/12/26 02:56:44;;;;;;;27.75;11.30;;;14.10;30.70;;;;;;5007800;28;20021;-67
2020/12/26 02:59:10;;;;;;;;;;;14.10;30.00;;;;;;4983422;28;20104;-67
2020/12/26 03:01:40;;;;;;;18.63;8.50;;;14.00;30.00;;;;;;4989893;28;19918;-65
2020/12/26 03:04:07;;;;;;;34.00;9.57;;;14.00;30.60;;;;;;4986082;28;20036;-66
2020/12/26 03:06:34;;;;;;;26.98;9.38;;;14.00;30.40;;;;;;4992170;28;20019;-66
2020/12/26 03:09:00;;;;;;;26.08;8.30;;;13.90;30.70;;;;;;5006110;28;20039;-66
2020/12/26 03:11:27;;;;;;;26.25;8.50;;;13.90;30.90;;;;;;5016207;28;20053;-67
2020/12/26 03:13:53;;;;;;;;;;;13.90;30.50;;;;;;4990759;28;20033;-67
2020/12/26 03:16:19;;;;;;;23.25;8.73;;;13.80;30.50;;;;;;5000962;28;20011;-66
2020/12/26 03:18:46;;;;;;;22.45;8.63;;;13.80;30.60;;;;;;4979373;28;20168;-68
2020/12/26 03:21:14;;;;;;;21.65;8.45;;;13.70;30.80;;;;;;4992679;28;20023;-67
2020/12/26 03:23:41;;;;;;;22.20;8.45;;;13.70;31.40;;;;;;4999503;28;20523;-67
2020/12/26 03:26:07;;;;;;;20.63;9.52;;;13.60;31.30;;;;;;5008339;28;20139;-66
2020/12/26 03:28:33;;;;;;;;;;;13.60;32.00;;;;;;5025783;28;20025;-66
2020/12/26 03:31:00;;;;;;;25.70;10.82;;;13.50;31.40;;;;;;5006773;28;20308;-66
2020/12/26 03:33:26;;;;;;;;;;;13.50;31.20;;;;;;4984000;28;20161;-66
2020/12/26 03:35:53;;;;;;;29.02;10.77;;;13.50;31.50;;;;;;4992492;28;19916;-66
2020/12/26 03:38:19;;;;;;;;;;;13.40;32.10;;;;;;4991393;28;20049;-67
2020/12/26 03:40:45;;;;;;;34.53;12.50;;;;;;;;;;5005386;28;20282;-67
2020/12/26 03:43:11;;;;;;;;;;;13.30;31.90;;;;;;4996035;28;20406;-66
2020/12/26 03:45:38;;;;;;;40.33;15.82;;;13.30;32.80;;;;;;5001951;28;20013;-67
2020/12/26 03:48:04;;;;;;;;;;;13.40;32.60;;;;;;4986890;28;20028;-66
2020/12/26 03:50:31;;;;;;;45.08;18.80;;;13.30;32.80;;;;;;5012160;28;19908;-66
2020/12/26 03:52:57;;;;;;;;;;;13.30;32.70;;;;;;5038180;28;20020;-65
2020/12/26 03:55:23;;;;;;;39.53;16.33;;;13.30;33.10;;;;;;5022318;28;20424;-66
2020/12/26 03:57:50;;;;;;;39.55;17.45;;;13.20;33.60;;;;;;5004868;28;20037;-69
2020/12/26 04:00:16;;;;;;;36.33;17.23;;;13.20;33.40;;;;;;5006420;28;20132;-68
2020/12/26 04:02:42;;;;;;;;;;;13.10;33.40;;;;;;4977675;28;20023;-67
2020/12/26 04:05:09;;;;;;;41.95;17.42;;;13.10;33.50;;;;;;5005359;28;19918;-68
2020/12/26 04:07:35;;;;;;;;;;;13.10;33.80;;;;;;5002073;28;20035;-67
2020/12/26 04:10:02;;;;;;;34.65;16.48;;;13.00;50.20;;;;;;5006778;28;19916;-68
2020/12/26 04:12:32;;;;;;;44.83;19.13;;;13.00;34.80;;;;;;5019048;28;20049;-71
2020/12/26 04:14:58;;;;;;;36.92;19.35;;;12.70;49.50;;;;;;4971304;28;20080;-68
2020/12/26 04:17:25;;;;;;;47.97;19.02;;;12.90;34.30;;;;;;4994114;28;20106;-68
2020/12/26 04:19:51;;;;;;;;;;;12.90;34.10;;;;;;5011595;28;20036;-68
2020/12/26 04:22:18;;;;;;;40.40;19.33;;;12.90;34.60;;;;;;4996937;28;19915;-68
2020/12/26 04:24:44;;;;;;;;;;;12.90;35.20;;;;;;4999899;28;20228;-68
2020/12/26 04:27:11;;;;;;;48.35;20.67;;;12.90;34.60;;;;;;5012630;28;19916;-66
2020/12/26 04:29:37;;;;;;;43.97;19.50;;;12.80;35.10;;;;;;5009630;28;20027;-67
2020/12/26 04:32:04;;;;;;;53.67;20.52;;;12.80;35.30;;;;;;4997138;28;20067;-67
2020/12/26 04:34:30;;;;;;;;;;;12.80;35.40;;;;;;5003805;28;20021;-67
2020/12/26 04:36:57;;;;;;;53.97;20.25;;;12.80;35.40;;;;;;5017778;28;20353;-66
2020/12/26 04:39:23;;;;;;;;;;;12.70;35.50;;;;;;4980359;28;20153;-67
2020/12/26 04:41:49;;;;;;;65.30;21.42;;;12.60;35.60;;;;;;5004291;28;19925;-67
2020/12/26 04:44:16;;;;;;;;;;;12.70;36.10;;;;;;4989711;28;20126;-67
2020/12/26 04:46:43;;;;;;;52.93;22.20;;;12.60;36.00;;;;;;4990630;28;19915;-68
2020/12/26 04:49:11;;;;;;;61.08;23.65;;;12.60;35.90;;;;;;5020113;28;20048;-68
2020/12/26 04:51:42;;;;;;;64.07;21.85;;;12.60;36.40;;;;;;5031467;28;20036;-68
2020/12/26 04:54:32;;;;;;;48.28;22.50;;;12.70;36.50;;;;;;5010173;28;20495;-68
2020/12/26 04:57:05;;;;;;;60.53;23.10;;;12.60;36.60;;;;;;4997663;28;20021;-67
2020/12/26 04:59:34;;;;;;;57.88;23.60;;;12.60;37.10;;;;;;4992511;28;20088;-69
2020/12/26 05:02:01;;;;;;;65.07;26.15;;;12.60;37.90;;;;;;5007193;28;20071;-68
2020/12/26 05:04:28;;;;;;;78.03;29.90;;;12.50;37.50;;;;;;5000799;28;20485;-68
2020/12/26 05:06:54;;;;;;;72.13;28.02;;;12.40;37.30;;;;;;5017119;28;20084;-69
2020/12/26 05:09:25;;;;;;;67.88;28.02;;;12.50;37.20;;;;;;5028419;28;20141;-68
2020/12/26 05:12:01;;;;;;;72.63;27.90;;;12.50;37.40;;;;;;5028236;28;20027;-68
2020/12/26 05:14:30;;;;;;;76.80;27.90;;;12.40;37.50;;;;;;5012876;28;20470;-69
2020/12/26 05:16:58;;;;;;;74.05;28.00;;;12.40;44.00;;;;;;4987030;28;20113;-68
2020/12/26 05:19:25;;;;;;;69.00;27.17;;;12.40;37.30;;;;;;4984661;28;20077;-68
2020/12/26 05:21:56;;;;;;;72.15;26.85;;;12.50;37.70;;;;;;4984632;28;20021;-68
2020/12/26 05:24:23;;;;;;;74.65;30.38;;;12.50;38.20;;;;;;5015159;28;20031;-67
2020/12/26 05:26:52;;;;;;;88.47;33.88;;;12.40;55.70;;;;;;4995771;28;20044;-67
2020/12/26 05:29:23;;;;;;;86.15;36.13;;;12.40;37.40;;;;;;5003734;28;20052;-68
2020/12/26 05:31:57;;;;;;;75.05;34.78;;;12.10;63.60;;;;;;4992646;28;20037;-68
2020/12/26 05:34:32;;;;;;;85.40;37.35;;;12.70;69.30;;;;;;5011472;28;20021;-69
2020/12/26 05:37:00;;;;;;;91.97;38.15;;;12.30;56.90;;;;;;5004558;28;20019;-68
2020/12/26 05:39:45;;;;;;;82.53;38.35;;;11.90;47.40;;;;;;5000785;28;20026;-67
2020/12/26 05:42:21;;;;;;;89.38;39.80;;;;;;;;;;5007076;28;20043;-67
2020/12/26 05:44:48;;;;;;;85.50;41.22;;;12.10;49.50;;;;;;4990019;28;20051;-66
2020/12/26 05:47:14;;;;;;;;;;;12.00;35.30;;;;;;5003106;28;20023;-67
2020/12/26 05:49:41;;;;;;;91.38;38.63;;;12.00;35.80;;;;;;4992255;28;20402;-66
2020/12/26 05:52:12;;;;;;;93.93;40.78;;;12.00;35.90;;;;;;5009565;28;20030;-66
2020/12/26 05:54:49;;;;;;;81.82;40.17;;;11.80;39.20;;;;;;4979179;28;20019;-67
2020/12/26 05:57:16;;;;;;;;;;;11.90;51.90;;;;;;4994695;28;20039;-65
2020/12/26 05:59:51;;;;;;;93.07;37.35;;;12.00;47.90;;;;;;5022772;28;19920;-66
2020/12/26 06:02:29;;;;;;;86.50;37.10;;;11.80;51.70;;;;;;4996765;28;20513;-67
2020/12/26 06:05:00;;;;;;;81.72;34.53;;;11.80;67.00;;;;;;5011582;28;20036;-66
2020/12/26 06:07:35;;;;;;;78.25;34.53;;;11.70;69.40;;;;;;5009960;28;20356;-67
2020/12/26 06:10:06;;;;;;;85.13;34.40;;;11.50;68.20;;;;;;5014186;28;20034;-66
2020/12/26 06:12:33;;;;;;;80.53;33.65;;;11.60;71.40;;;;;;5010865;28;20484;-68
2020/12/26 06:15:00;;;;;;;76.00;32.90;;;11.80;71.90;;;;;;5003702;28;20039;-68
2020/12/26 06:17:28;;;;;;;78.47;33.67;;;11.70;71.90;;;;;;5010870;28;20544;-65
2020/12/26 06:19:59;;;;;;;85.80;34.95;;;11.80;46.30;;;;;;5009464;28;20027;-67
2020/12/26 06:22:26;;;;;;;74.68;35.20;;;;;;;;;;5008699;28;20042;-65
2020/12/26 06:24:53;;;;;;;79.80;33.92;;;11.30;37.60;;;;;;5045900;28;20063;-66
2020/12/26 06:27:24;;;;;;;81.85;35.63;;;12.20;51.90;;;;;;5006991;28;20017;-66
2020/12/26 06:29:51;;;;;;;85.85;39.05;;;11.60;55.20;;;;;;5010386;28;20030;-64
2020/12/26 06:32:18;;;;;;;91.57;39.92;;;11.70;36.80;;;;;;4993520;28;20020;-66
2020/12/26 06:34:45;;;;;;;93.32;39.20;;;11.60;37.50;;;;;;4986755;28;20035;-66
2020/12/26 06:37:12;;;;;;;102.63;38.70;;;;;;;;;;5005942;28;20426;-66
2020/12/26 06:39:39;;;;;;;88.63;37.13;;;11.60;63.80;;;;;;5005124;28;20486;-66
2020/12/26 06:42:19;;;;;;;90.45;37.50;;;11.80;47.40;;;;;;5000414;28;20040;-66
2020/12/26 06:44:48;;;;;;;87.00;36.25;;;11.50;38.30;;;;;;4995870;28;21429;-66
2020/12/26 06:47:39;;;;;;;86.00;35.38;;;11.40;63.80;;;;;;4997694;28;20497;-65
2020/12/26 06:50:22;;;;;;;98.35;39.20;;;11.50;38.90;;;;;;4995545;28;20483;-65
2020/12/26 06:52:49;;;;;;;95.45;39.90;;;11.60;56.90;;;;;;5004189;28;20045;-65
2020/12/26 06:55:40;;;;;;;112.80;41.08;;;11.60;56.60;;;;;;5005802;28;20038;-67
2020/12/26 06:58:22;;;;;;;101.32;39.58;;;12.20;50.60;;;;;;5004555;28;20038;-67
2020/12/26 07:00:48;;;;;;;93.72;40.00;;;11.50;37.00;;;;;;4993826;28;20493;-66
2020/12/26 07:03:15;;;;;;;;;;;11.60;36.80;;;;;;4987437;28;20054;-66
2020/12/26 07:05:46;;;;;;;106.05;42.30;;;11.60;37.70;;;;;;4980735;28;19918;-66
2020/12/26 07:08:29;;;;;;;96.78;41.35;;;11.40;37.60;;;;;;5000798;28;20042;-65
2020/12/26 07:10:58;;;;;;;106.63;40.58;;;11.40;37.60;;;;;;4985995;28;20041;-65
2020/12/26 07:13:48;;;;;;;106.40;40.08;;;11.50;37.60;;;;;;4988975;28;20021;-66
2020/12/26 07:16:45;;;;;;;99.90;40.35;;;11.20;76.30;;;;;;4980944;28;20384;-64
2020/12/26 07:19:23;;;;;;;114.15;40.83;;;11.70;64.80;;;;;;4992099;28;20065;-66
2020/12/26 07:21:51;;;;;;;117.93;43.17;;;11.20;39.10;;;;;;4993658;28;20060;-65
2020/12/26 07:24:23;;;;;;;110.95;44.88;;;11.50;73.40;;;;;;5012432;28;20475;-64
2020/12/26 07:26:50;;;;;;;112.38;40.90;;;11.50;70.30;;;;;;5007833;28;20029;-64
2020/12/26 07:29:27;;;;;;;102.45;39.95;;;11.20;71.20;;;;;;4996179;28;20058;-65
2020/12/26 07:31:54;;;;;;;102.43;42.08;;;11.00;75.90;;;;;;5011802;28;20075;-67
2020/12/26 07:34:43;;;;;;;97.43;40.15;;;11.00;39.90;;;;;;4989350;28;20040;-67
2020/12/26 07:37:09;;;;;;;121.22;44.83;;;11.00;72.40;;;;;;5009863;28;20452;-67
2020/12/26 07:39:43;;;;;;;;;;;11.00;42.80;;;;;;5003272;28;20383;-66
2020/12/26 07:42:15;;;;;;;130.55;45.88;;;10.70;75.80;;;;;;4982723;28;19960;-67
2020/12/26 07:44:41;;;;;;;124.88;45.63;;;11.20;74.30;;;;;;4996689;28;20078;-66
2020/12/26 07:47:09;;;;;;;;;;;11.20;50.20;;;;;;5003343;28;20023;-66
2020/12/26 07:49:35;;;;;;;;;;;11.50;51.30;;;;;;4983116;28;21386;-67
2020/12/26 07:52:07;;;;;;;106.07;46.92;;;11.20;51.00;;;;;;4980539;28;19914;-67
2020/12/26 07:54:33;;;;;;;129.65;49.75;;;11.30;39.00;;;;;;5053538;28;20021;-67
2020/12/26 07:57:00;;;;;;;120.18;48.78;;;11.20;39.00;;;;;;4998597;28;20028;-68
2020/12/26 07:59:28;;;;;;;124.03;49.55;;;11.30;73.90;;;;;;5002615;28;20502;-66
2020/12/26 08:01:56;;;;;;;114.05;49.75;;;11.30;71.50;;;;;;4987738;28;20023;-66
2020/12/26 08:04:23;;;;;;;133.15;51.15;;;10.70;70.20;;;;;;4997722;28;20040;-68
2020/12/26 08:06:53;;;;;;;120.90;49.00;;;11.40;72.90;;;;;;4982873;28;20034;-67
2020/12/26 08:09:19;;;;;;;128.75;50.50;;;11.40;50.80;;;;;;5017499;28;20369;-67
2020/12/26 08:11:51;;;;;;;117.57;50.60;;;11.20;43.00;;;;;;5005205;28;20034;-66
2020/12/26 08:14:18;;;;;;;123.43;50.38;;;10.90;76.30;;;;;;4977567;28;20102;-67
2020/12/26 08:16:45;;;;;;;123.15;51.95;;;11.20;48.40;;;;;;4976314;28;20030;-65
2020/12/26 08:19:14;;;;;;;150.18;54.03;;;11.00;73.50;;;;;;5016700;28;20050;-66
2020/12/26 08:21:41;;;;;;;126.30;53.08;;;11.10;47.40;;;;;;4986411;28;20073;-65
2020/12/26 08:24:07;;;;;;;147.70;54.25;;;11.00;39.80;;;;;;4979280;28;20549;-67
2020/12/26 08:26:34;;;;;;;;;;;11.10;48.50;;;;;;4992810;28;20035;-66
2020/12/26 08:29:06;;;;;;;120.75;52.58;;;11.00;49.80;;;;;;4990314;28;20252;-66
2020/12/26 08:31:36;;;;;;;115.65;52.65;;;11.00;40.00;;;;;;5002226;28;20529;-67
2020/12/26 08:34:19;;;;;;;131.50;56.13;;;11.00;40.00;;;;;;4998192;28;20017;-65
2020/12/26 08:36:55;;;;;;;129.93;55.72;;;10.50;47.10;;;;;;4990438;28;20082;-64
2020/12/26 08:39:24;;;;;;;133.13;56.77;;;10.80;48.80;;;;;;5006916;28;20036;-65
2020/12/26 08:41:53;;;;;;;135.07;54.42;;;10.70;49.80;;;;;;4985583;28;20290;-66
2020/12/26 08:44:20;;;;;;;127.45;53.90;;;10.70;39.00;;;;;;4974526;28;20142;-65
2020/12/26 08:46:48;;;;;;;121.45;51.85;;;10.70;39.80;;;;;;4973986;28;20035;-65
2020/12/26 08:49:15;;;;;;;131.95;54.70;;;10.60;50.10;;;;;;5005437;28;20130;-66
2020/12/26 08:51:43;;;;;;;124.65;55.45;;;10.60;39.50;;;;;;4991936;28;20104;-66
2020/12/26 08:54:21;;;;;;;131.68;55.97;;;10.70;50.10;;;;;;4991983;28;20467;-66
2020/12/26 08:56:47;;;;;;;127.90;56.88;;;10.70;40.50;;;;;;4990283;28;20039;-66
2020/12/26 08:59:25;;;;;;;138.40;56.35;;;10.70;41.40;;;;;;5019340;28;20040;-66
2020/12/26 09:01:57;;;;;;;131.30;54.67;;;10.60;41.60;;;;;;5007471;28;20026;-65
2020/12/26 09:04:27;;;;;;;144.85;58.47;;;10.60;41.40;;;;;;4980100;28;20035;-66
2020/12/26 09:06:53;;;;;;;126.75;56.85;;;10.70;41.20;;;;;;5011101;28;21403;-66
2020/12/26 09:09:20;;;;;;;;;;;10.70;41.50;;;;;;4993509;28;20025;-65
2020/12/26 09:11:59;;;;;;;139.02;56.67;;;10.70;41.40;;;;;;5003238;28;19915;-64
2020/12/26 09:14:25;;;;;;;133.68;58.67;;;10.70;41.50;;;;;;4990799;28;20035;-67
2020/12/26 09:17:00;;;;;;;129.57;58.05;;;10.60;41.80;;;;;;5001851;28;20027;-65
2020/12/26 09:19:27;;;;;;;140.63;59.15;;;10.50;41.50;;;;;;5006506;28;20025;-66
2020/12/26 09:22:08;;;;;;;131.98;56.72;;;10.60;41.10;;;;;;4994774;28;20021;-65
2020/12/26 09:24:34;;;;;;;126.45;59.10;;;10.60;41.20;;;;;;5011151;28;20079;-63
2020/12/26 09:27:01;;;;;;;127.55;56.00;;;10.50;40.50;;;;;;4975972;28;20023;-66
2020/12/26 09:29:27;;;;;;;;;;;10.60;41.10;;;;;;4968706;28;20054;-66
2020/12/26 09:31:53;;;;;;;122.32;55.05;;;10.60;41.80;;;;;;4965558;28;19917;-64
2020/12/26 09:34:20;;;;;;;;;;;10.60;41.70;;;;;;4963174;28;20023;-66
2020/12/26 09:36:48;;;;;;;127.82;55.90;;;10.60;41.40;;;;;;4964843;28;19918;-63
2020/12/26 09:39:15;;;;;;;120.35;55.50;;;10.50;42.30;;;;;;4977932;28;20031;-64
2020/12/26 09:41:47;;;;;;;137.77;57.03;;;10.40;42.10;;;;;;4983674;28;20391;-66
2020/12/26 09:44:15;;;;;;;125.55;55.53;;;10.50;42.20;;;;;;4977219;28;20121;-65
2020/12/26 09:46:42;;;;;;;132.15;57.40;;;10.50;42.60;;;;;;4971457;28;20491;-64
2020/12/26 09:49:10;;;;;;;135.63;55.63;;;10.50;42.40;;;;;;4985060;28;20118;-65
2020/12/26 09:51:37;;;;;;;136.32;58.17;;;10.50;42.50;;;;;;4985207;28;20120;-65
2020/12/26 09:54:04;;;;;;;126.13;54.90;;;10.50;42.90;;;;;;4989841;28;20486;-65
2020/12/26 09:56:31;;;;;;;129.35;56.55;;;10.50;42.60;;;;;;4979963;28;20039;-63
2020/12/26 09:58:57;;;;;;;;;;;10.50;42.70;;;;;;4976495;28;20105;-64
2020/12/26 10:01:23;;;;;;;124.25;54.58;;;10.30;44.30;;;;;;4979184;28;20362;-62
2020/12/26 10:03:50;;;;;;;;;;;10.40;44.10;;;;;;4982570;28;20529;-64
2020/12/26 10:06:18;;;;;;;131.88;52.88;;;10.20;43.40;;;;;;4978255;28;20447;-64
2020/12/26 10:08:46;;;;;;;137.52;56.13;;;10.30;43.10;;;;;;4972197;28;20031;-65
2020/12/26 10:11:17;;;;;;;127.43;56.67;;;10.30;43.00;;;;;;4989670;28;20038;-65
2020/12/26 10:13:45;;;;;;;139.45;57.17;;;10.30;43.00;;;;;;4977588;28;20026;-65
2020/12/26 10:16:12;;;;;;;135.68;57.10;;;10.20;42.80;;;;;;4983086;28;20083;-65
2020/12/26 10:18:41;;;;;;;120.05;55.08;;;10.20;42.70;;;;;;4989563;28;20079;-65
2020/12/26 10:21:08;;;;;;;117.22;53.50;;;10.10;42.60;;;;;;4977417;28;20023;-65
2020/12/26 10:23:34;;;;;;;;;;;10.00;42.60;;;;;;4983874;28;21411;-65
2020/12/26 10:26:07;;;;;;;123.45;54.75;;;9.90;42.90;;;;;;4977785;28;19928;-64
2020/12/26 10:28:35;;;;;;;129.88;56.05;;;10.00;43.50;;;;;;4997335;28;20078;-63
2020/12/26 10:31:02;;;;;;;131.13;57.33;;;10.00;43.40;;;;;;4981077;28;20025;-64
2020/12/26 10:33:29;;;;;;;132.98;57.42;;;10.10;43.10;;;;;;4987476;28;20026;-64
2020/12/26 10:35:56;;;;;;;127.78;56.53;;;10.10;43.60;;;;;;4983179;28;20118;-63
2020/12/26 10:38:23;;;;;;;120.45;55.17;;;10.00;44.20;;;;;;4977606;28;20058;-65
2020/12/26 10:40:50;;;;;;;127.05;53.75;;;10.00;44.10;;;;;;4986681;28;20074;-64
2020/12/26 10:43:17;;;;;;;125.40;56.53;;;10.10;48.00;;;;;;5007072;28;20060;-65
2020/12/26 10:45:43;;;;;;;120.30;56.40;;;10.00;44.80;;;;;;4977487;28;20054;-65
2020/12/26 10:48:10;;;;;;;122.43;55.90;;;10.10;44.40;;;;;;4978146;28;20023;-65
2020/12/26 10:50:37;;;;;;;116.60;56.10;;;10.00;44.00;;;;;;4983513;28;20491;-66
2020/12/26 10:53:03;;;;;;;;;;;10.00;44.20;;;;;;4981943;28;20033;-65
2020/12/26 10:55:30;;;;;;;115.25;54.63;;;10.00;43.80;;;;;;4975396;28;19910;-65
2020/12/26 10:57:56;;;;;;;126.35;56.78;;;10.00;44.60;;;;;;4990290;28;20031;-66
2020/12/26 11:00:22;;;;;;;;;;;9.90;45.40;;;;;;4984836;28;20084;-66
2020/12/26 11:02:49;;;;;;;130.05;54.92;;;9.80;44.70;;;;;;4972124;28;19911;-66
2020/12/26 11:05:16;;;;;;;115.40;54.83;;;9.80;44.30;;;;;;4988892;28;20083;-66
2020/12/26 11:07:43;;;;;;;130.30;55.95;;;9.80;44.20;;;;;;4983286;28;20124;-66
2020/12/26 11:10:09;;;;;;;134.13;53.45;;;9.80;44.00;;;;;;4970555;28;20032;-65
2020/12/26 11:12:36;;;;;;;132.70;54.42;;;9.80;42.90;;;;;;4985361;28;20023;-64
2020/12/26 11:15:03;;;;;;;113.25;55.53;;;9.60;43.00;;;;;;4965700;28;20046;-66
2020/12/26 11:17:29;;;;;;;;;;;9.60;43.40;;;;;;4975020;28;20032;-64
2020/12/26 11:19:55;;;;;;;134.10;57.03;;;9.60;43.80;;;;;;4983366;28;19910;-65
2020/12/26 11:22:22;;;;;;;;;;;9.60;43.50;;;;;;4982337;28;20039;-66
2020/12/26 11:24:48;;;;;;;136.13;59.83;;;9.60;42.80;;;;;;4964165;28;19925;-66
2020/12/26 11:27:15;;;;;;;138.18;58.72;;;9.60;42.40;;;;;;4984602;28;20436;-67
2020/12/26 11:29:42;;;;;;;154.88;61.58;;;9.60;43.00;;;;;;4992195;28;20058;-66
2020/12/26 11:32:08;;;;;;;161.90;63.05;;;9.50;42.90;;;;;;4997187;28;20483;-65
2020/12/26 11:34:35;;;;;;;139.65;60.30;;;9.60;42.70;;;;;;4983539;28;20047;-66
2020/12/26 11:37:04;;;;;;;138.90;62.38;;;9.50;42.50;;;;;;4979662;28;20025;-64
2020/12/26 11:39:31;;;;;;;126.55;63.22;;;9.50;42.80;;;;;;4980057;28;20058;-65
2020/12/26 11:41:57;;;;;;;142.73;66.55;;;9.60;43.20;;;;;;4982906;28;20075;-67
2020/12/26 11:44:23;;;;;;;;;;;9.60;43.10;;;;;;4990937;28;20049;-66
2020/12/26 11:46:50;;;;;;;154.23;65.90;;;9.60;43.20;;;;;;4980519;28;19910;-65
2020/12/26 11:49:16;;;;;;;;;;;9.60;43.20;;;;;;4985995;28;20047;-65
2020/12/26 11:51:43;;;;;;;153.93;68.10;;;9.50;44.00;;;;;;4980691;28;20299;-65
2020/12/26 11:54:09;;;;;;;;;;;9.50;44.20;;;;;;4988751;28;20030;-65
2020/12/26 11:56:36;;;;;;;168.45;71.38;;;9.30;44.30;;;;;;4971100;28;19983;-66
2020/12/26 11:59:02;;;;;;;;;;;9.50;44.50;;;;;;4993895;28;20521;-66
2020/12/26 12:01:29;;;;;;;166.60;72.70;;;9.60;44.60;;;;;;4985717;28;19910;-65
2020/12/26 12:03:56;;;;;;;171.77;72.90;;;9.50;43.60;;;;;;4988116;28;20423;-65
2020/12/26 12:06:22;;;;;;;174.18;75.35;;;9.60;43.30;;;;;;4973757;28;20052;-65
2020/12/26 12:08:48;;;;;;;198.30;77.97;;;9.50;42.70;;;;;;4991302;28;20044;-64
2020/12/26 12:11:16;;;;;;;;;;;9.50;43.20;;;;;;4986450;28;20041;-66
2020/12/26 12:13:43;;;;;;;169.10;75.28;;;9.50;44.20;;;;;;4970712;28;20359;-66
2020/12/26 12:16:13;;;;;;;177.60;77.20;;;9.50;44.70;;;;;;4975773;28;20467;-65
2020/12/26 12:18:39;;;;;;;179.88;76.90;;;9.50;44.70;;;;;;4978729;28;20035;-65
2020/12/26 12:21:06;;;;;;;171.07;75.47;;;9.40;44.10;;;;;;4987432;28;20029;-66
2020/12/26 12:23:32;;;;;;;;;;;9.40;43.90;;;;;;4981420;28;20105;-66
2020/12/26 12:25:59;;;;;;;190.88;76.63;;;9.40;43.70;;;;;;4985665;28;19942;-65
2020/12/26 12:28:25;;;;;;;173.55;73.38;;;9.40;44.10;;;;;;4973597;28;20033;-66
2020/12/26 12:30:51;;;;;;;;;;;9.40;44.50;;;;;;4983356;28;20048;-66
2020/12/26 12:33:18;;;;;;;166.68;73.43;;;9.40;43.70;;;;;;4966370;28;19929;-66
2020/12/26 12:35:44;;;;;;;190.73;77.63;;;9.40;43.80;;;;;;4980984;28;20038;-62
2020/12/26 12:38:11;;;;;;;;;;;9.40;44.00;;;;;;4988492;28;20048;-66
2020/12/26 12:40:38;;;;;;;179.98;74.32;;;9.40;44.00;;;;;;4973710;28;20531;-64
2020/12/26 12:43:04;;;;;;;166.90;73.63;;;9.40;44.00;;;;;;4975217;28;20078;-65
2020/12/26 12:45:30;;;;;;;;;;;9.30;44.30;;;;;;4980007;28;20082;-66
2020/12/26 12:47:57;;;;;;;190.40;76.00;;;9.40;44.10;;;;;;4984132;28;19934;-65
2020/12/26 12:50:23;;;;;;;;;;;9.40;44.30;;;;;;5001928;28;20040;-64
2020/12/26 12:52:49;;;;;;;176.52;75.72;;;9.20;45.10;;;;;;4982740;28;19929;-65